sensor_id;sensor_type;location;lat;lon;timestamp;P1;durP1;ratioP1;P2;durP2;ratioP2
47299;SDS011;33036;51.320;17.234;2022-09-19T00:01:15;7.32;;;1.42;;
47299;SDS011;33036;51.320;17.234;2022-09-19T00:05:18;6.88;;;1.50;;
47299;SDS011;33036;51.320;17.234;2022-09-19T00:09:19;4.43;;;1.80;;
47299;SDS011;33036;51.320;17.234;2022-09-19T00:13:21;5.80;;;1.67;;
47299;SDS011;33036;51.320;17.234;2022-09-19T00:17:22;6.70;;;2.00;;
47299;SDS011;33036;51.320;17.234;2022-09-19T00:25:28;2.97;;;1.60;;
47299;SDS011;33036;51.320;17.234;2022-09-19T00:29:31;3.97;;;1.60;;
47299;SDS011;33036;51.320;17.234;2022-09-19T00:33:33;6.30;;;2.28;;
47299;SDS011;33036;51.320;17.234;2022-09-19T00:37:34;3.10;;;1.80;;
47299;SDS011;33036;51.320;17.234;2022-09-19T00:41:35;4.45;;;2.00;;
47299;SDS011;33036;51.320;17.234;2022-09-19T00:45:37;4.18;;;2.30;;
47299;SDS011;33036;51.320;17.234;2022-09-19T00:49:39;3.22;;;2.25;;
47299;SDS011;33036;51.320;17.234;2022-09-19T00:53:41;3.70;;;2.20;;
47299;SDS011;33036;51.320;17.234;2022-09-19T00:57:49;3.85;;;2.50;;
47299;SDS011;33036;51.320;17.234;2022-09-19T01:01:53;3.83;;;2.50;;
47299;SDS011;33036;51.320;17.234;2022-09-19T01:10:50;4.10;;;2.20;;
47299;SDS011;33036;51.320;17.234;2022-09-19T01:19:24;4.55;;;2.08;;
47299;SDS011;33036;51.320;17.234;2022-09-19T01:32:13;5.88;;;2.10;;
47299;SDS011;33036;51.320;17.234;2022-09-19T01:36:19;4.00;;;2.10;;
47299;SDS011;33036;51.320;17.234;2022-09-19T01:40:23;9.27;;;2.72;;
47299;SDS011;33036;51.320;17.234;2022-09-19T01:44:25;6.65;;;2.30;;
47299;SDS011;33036;51.320;17.234;2022-09-19T01:48:31;8.73;;;2.80;;
47299;SDS011;33036;51.320;17.234;2022-09-19T02:01:36;5.97;;;2.30;;
47299;SDS011;33036;51.320;17.234;2022-09-19T02:05:57;9.27;;;2.88;;
47299;SDS011;33036;51.320;17.234;2022-09-19T02:10:02;6.13;;;2.63;;
47299;SDS011;33036;51.320;17.234;2022-09-19T02:14:08;6.28;;;3.58;;
47299;SDS011;33036;51.320;17.234;2022-09-19T02:18:21;4.68;;;3.15;;
47299;SDS011;33036;51.320;17.234;2022-09-19T02:22:38;6.85;;;3.00;;
47299;SDS011;33036;51.320;17.234;2022-09-19T02:26:44;9.95;;;3.58;;
47299;SDS011;33036;51.320;17.234;2022-09-19T02:30:49;6.13;;;3.33;;
47299;SDS011;33036;51.320;17.234;2022-09-19T02:34:51;6.03;;;2.95;;
47299;SDS011;33036;51.320;17.234;2022-09-19T02:43:41;6.38;;;3.25;;
47299;SDS011;33036;51.320;17.234;2022-09-19T02:52:00;6.72;;;3.63;;
47299;SDS011;33036;51.320;17.234;2022-09-19T02:56:04;5.97;;;3.17;;
47299;SDS011;33036;51.320;17.234;2022-09-19T03:00:07;6.03;;;3.40;;
47299;SDS011;33036;51.320;17.234;2022-09-19T03:04:09;6.20;;;3.83;;
47299;SDS011;33036;51.320;17.234;2022-09-19T03:08:15;11.73;;;3.20;;
47299;SDS011;33036;51.320;17.234;2022-09-19T03:12:18;5.13;;;3.03;;
47299;SDS011;33036;51.320;17.234;2022-09-19T03:16:24;7.35;;;3.30;;
47299;SDS011;33036;51.320;17.234;2022-09-19T03:20:27;4.25;;;2.97;;
47299;SDS011;33036;51.320;17.234;2022-09-19T03:24:28;10.60;;;3.35;;
47299;SDS011;33036;51.320;17.234;2022-09-19T03:28:28;3.83;;;2.67;;
47299;SDS011;33036;51.320;17.234;2022-09-19T03:32:29;13.95;;;3.85;;
47299;SDS011;33036;51.320;17.234;2022-09-19T03:36:30;4.93;;;3.30;;
47299;SDS011;33036;51.320;17.234;2022-09-19T03:40:34;5.18;;;3.55;;
47299;SDS011;33036;51.320;17.234;2022-09-19T03:44:35;7.97;;;3.42;;
47299;SDS011;33036;51.320;17.234;2022-09-19T03:48:37;7.22;;;3.45;;
47299;SDS011;33036;51.320;17.234;2022-09-19T03:52:38;3.83;;;2.95;;
47299;SDS011;33036;51.320;17.234;2022-09-19T03:56:39;5.00;;;3.20;;
47299;SDS011;33036;51.320;17.234;2022-09-19T04:00:40;6.30;;;3.05;;
47299;SDS011;33036;51.320;17.234;2022-09-19T04:04:41;6.35;;;3.17;;
47299;SDS011;33036;51.320;17.234;2022-09-19T04:08:42;6.45;;;3.38;;
47299;SDS011;33036;51.320;17.234;2022-09-19T04:12:43;3.72;;;2.97;;
47299;SDS011;33036;51.320;17.234;2022-09-19T04:16:44;5.03;;;3.30;;
47299;SDS011;33036;51.320;17.234;2022-09-19T04:20:46;7.05;;;3.03;;
47299;SDS011;33036;51.320;17.234;2022-09-19T04:24:47;6.55;;;3.40;;
47299;SDS011;33036;51.320;17.234;2022-09-19T04:28:49;6.50;;;3.90;;
47299;SDS011;33036;51.320;17.234;2022-09-19T04:32:50;7.60;;;3.33;;
47299;SDS011;33036;51.320;17.234;2022-09-19T04:36:51;6.65;;;3.60;;
47299;SDS011;33036;51.320;17.234;2022-09-19T04:40:52;10.90;;;4.25;;
47299;SDS011;33036;51.320;17.234;2022-09-19T04:44:57;6.18;;;3.47;;
47299;SDS011;33036;51.320;17.234;2022-09-19T04:48:59;11.70;;;3.55;;
47299;SDS011;33036;51.320;17.234;2022-09-19T04:53:00;8.20;;;3.75;;
47299;SDS011;33036;51.320;17.234;2022-09-19T04:57:02;11.25;;;3.70;;
47299;SDS011;33036;51.320;17.234;2022-09-19T05:01:06;9.95;;;3.80;;
47299;SDS011;33036;51.320;17.234;2022-09-19T05:05:08;3.78;;;2.80;;
47299;SDS011;33036;51.320;17.234;2022-09-19T05:09:09;3.55;;;2.47;;
47299;SDS011;33036;51.320;17.234;2022-09-19T05:13:12;7.13;;;3.10;;
47299;SDS011;33036;51.320;17.234;2022-09-19T05:17:13;4.82;;;3.17;;
47299;SDS011;33036;51.320;17.234;2022-09-19T05:21:14;13.70;;;2.88;;
47299;SDS011;33036;51.320;17.234;2022-09-19T05:25:16;4.57;;;2.58;;
47299;SDS011;33036;51.320;17.234;2022-09-19T05:29:18;8.40;;;2.95;;
47299;SDS011;33036;51.320;17.234;2022-09-19T05:33:20;3.97;;;2.83;;
47299;SDS011;33036;51.320;17.234;2022-09-19T05:37:25;5.15;;;3.03;;
47299;SDS011;33036;51.320;17.234;2022-09-19T05:41:27;7.07;;;3.25;;
47299;SDS011;33036;51.320;17.234;2022-09-19T05:45:28;6.95;;;3.05;;
47299;SDS011;33036;51.320;17.234;2022-09-19T05:49:29;4.10;;;2.78;;
47299;SDS011;33036;51.320;17.234;2022-09-19T05:53:31;5.00;;;2.80;;
47299;SDS011;33036;51.320;17.234;2022-09-19T05:57:54;8.90;;;2.80;;
47299;SDS011;33036;51.320;17.234;2022-09-19T06:01:56;5.22;;;2.75;;
47299;SDS011;33036;51.320;17.234;2022-09-19T06:05:59;5.93;;;2.47;;
47299;SDS011;33036;51.320;17.234;2022-09-19T06:10:00;6.88;;;2.33;;
47299;SDS011;33036;51.320;17.234;2022-09-19T06:14:01;9.82;;;2.65;;
47299;SDS011;33036;51.320;17.234;2022-09-19T06:18:14;5.07;;;2.65;;
47299;SDS011;33036;51.320;17.234;2022-09-19T06:22:15;4.85;;;2.47;;
47299;SDS011;33036;51.320;17.234;2022-09-19T06:26:16;8.35;;;2.92;;
47299;SDS011;33036;51.320;17.234;2022-09-19T06:30:22;3.58;;;2.97;;
47299;SDS011;33036;51.320;17.234;2022-09-19T06:34:23;7.38;;;2.53;;
47299;SDS011;33036;51.320;17.234;2022-09-19T06:38:25;4.75;;;2.75;;
47299;SDS011;33036;51.320;17.234;2022-09-19T06:42:31;5.53;;;3.00;;
47299;SDS011;33036;51.320;17.234;2022-09-19T06:46:32;7.78;;;2.30;;
47299;SDS011;33036;51.320;17.234;2022-09-19T06:50:37;6.38;;;2.40;;
47299;SDS011;33036;51.320;17.234;2022-09-19T06:54:38;4.13;;;2.85;;
47299;SDS011;33036;51.320;17.234;2022-09-19T06:58:39;6.35;;;3.25;;
47299;SDS011;33036;51.320;17.234;2022-09-19T07:02:40;7.32;;;3.10;;
47299;SDS011;33036;51.320;17.234;2022-09-19T07:06:43;4.18;;;3.05;;
47299;SDS011;33036;51.320;17.234;2022-09-19T07:10:44;7.13;;;3.33;;
47299;SDS011;33036;51.320;17.234;2022-09-19T07:14:45;3.80;;;3.08;;
47299;SDS011;33036;51.320;17.234;2022-09-19T07:18:46;4.85;;;3.30;;
47299;SDS011;33036;51.320;17.234;2022-09-19T07:22:47;8.52;;;3.72;;
47299;SDS011;33036;51.320;17.234;2022-09-19T07:26:57;7.90;;;3.20;;
47299;SDS011;33036;51.320;17.234;2022-09-19T07:30:58;9.70;;;3.50;;
47299;SDS011;33036;51.320;17.234;2022-09-19T07:35:00;8.77;;;2.97;;
47299;SDS011;33036;51.320;17.234;2022-09-19T07:39:01;6.60;;;3.22;;
47299;SDS011;33036;51.320;17.234;2022-09-19T07:43:04;5.53;;;2.70;;
47299;SDS011;33036;51.320;17.234;2022-09-19T07:47:05;5.47;;;3.50;;
47299;SDS011;33036;51.320;17.234;2022-09-19T07:51:25;9.45;;;3.78;;
47299;SDS011;33036;51.320;17.234;2022-09-19T07:55:27;7.53;;;4.07;;
47299;SDS011;33036;51.320;17.234;2022-09-19T07:59:29;7.70;;;3.72;;
47299;SDS011;33036;51.320;17.234;2022-09-19T08:03:30;7.38;;;3.20;;
47299;SDS011;33036;51.320;17.234;2022-09-19T08:07:31;6.88;;;3.60;;
47299;SDS011;33036;51.320;17.234;2022-09-19T08:11:35;4.82;;;2.33;;
47299;SDS011;33036;51.320;17.234;2022-09-19T08:15:39;3.63;;;2.40;;
47299;SDS011;33036;51.320;17.234;2022-09-19T08:19:43;4.53;;;2.50;;
47299;SDS011;33036;51.320;17.234;2022-09-19T08:23:44;13.05;;;4.20;;
47299;SDS011;33036;51.320;17.234;2022-09-19T08:27:45;15.93;;;9.65;;
47299;SDS011;33036;51.320;17.234;2022-09-19T08:31:46;8.50;;;3.38;;
47299;SDS011;33036;51.320;17.234;2022-09-19T08:35:47;5.30;;;3.13;;
47299;SDS011;33036;51.320;17.234;2022-09-19T08:39:48;8.30;;;3.42;;
47299;SDS011;33036;51.320;17.234;2022-09-19T08:48:23;9.00;;;4.78;;
47299;SDS011;33036;51.320;17.234;2022-09-19T08:52:34;5.95;;;3.00;;
47299;SDS011;33036;51.320;17.234;2022-09-19T08:56:46;9.73;;;4.18;;
47299;SDS011;33036;51.320;17.234;2022-09-19T09:00:47;8.88;;;4.18;;
47299;SDS011;33036;51.320;17.234;2022-09-19T09:04:49;7.05;;;3.63;;
47299;SDS011;33036;51.320;17.234;2022-09-19T09:09:09;6.90;;;3.90;;
47299;SDS011;33036;51.320;17.234;2022-09-19T09:26:20;11.55;;;4.35;;
47299;SDS011;33036;51.320;17.234;2022-09-19T09:30:24;9.93;;;3.92;;
47299;SDS011;33036;51.320;17.234;2022-09-19T09:38:39;6.85;;;3.40;;
47299;SDS011;33036;51.320;17.234;2022-09-19T09:42:52;8.95;;;3.63;;
47299;SDS011;33036;51.320;17.234;2022-09-19T09:47:12;5.78;;;3.83;;
47299;SDS011;33036;51.320;17.234;2022-09-19T09:51:34;12.15;;;4.38;;
47299;SDS011;33036;51.320;17.234;2022-09-19T10:00:33;11.35;;;3.78;;
47299;SDS011;33036;51.320;17.234;2022-09-19T10:04:54;6.22;;;3.55;;
47299;SDS011;33036;51.320;17.234;2022-09-19T10:13:17;8.25;;;3.80;;
47299;SDS011;33036;51.320;17.234;2022-09-19T10:17:29;22.63;;;4.20;;
47299;SDS011;33036;51.320;17.234;2022-09-19T10:21:37;8.13;;;4.40;;
47299;SDS011;33036;51.320;17.234;2022-09-19T10:25:38;7.55;;;2.83;;
47299;SDS011;33036;51.320;17.234;2022-09-19T10:29:50;9.75;;;3.92;;
47299;SDS011;33036;51.320;17.234;2022-09-19T10:34:02;5.13;;;3.33;;
47299;SDS011;33036;51.320;17.234;2022-09-19T10:38:14;6.80;;;3.25;;
47299;SDS011;33036;51.320;17.234;2022-09-19T10:42:19;8.88;;;3.15;;
47299;SDS011;33036;51.320;17.234;2022-09-19T10:46:32;9.38;;;3.53;;
47299;SDS011;33036;51.320;17.234;2022-09-19T10:50:56;13.85;;;2.90;;
47299;SDS011;33036;51.320;17.234;2022-09-19T10:55:00;7.70;;;3.03;;
47299;SDS011;33036;51.320;17.234;2022-09-19T11:07:59;6.10;;;2.30;;
47299;SDS011;33036;51.320;17.234;2022-09-19T11:12:04;8.52;;;2.50;;
47299;SDS011;33036;51.320;17.234;2022-09-19T11:16:08;6.85;;;2.38;;
47299;SDS011;33036;51.320;17.234;2022-09-19T11:29:11;6.70;;;2.95;;
47299;SDS011;33036;51.320;17.234;2022-09-19T11:33:28;6.37;;;3.13;;
47299;SDS011;33036;51.320;17.234;2022-09-19T11:46:42;7.07;;;4.10;;
47299;SDS011;33036;51.320;17.234;2022-09-19T11:50:56;5.97;;;3.97;;
47299;SDS011;33036;51.320;17.234;2022-09-19T12:03:25;20.23;;;10.98;;
47299;SDS011;33036;51.320;17.234;2022-09-19T12:08:11;20.63;;;11.23;;
47299;SDS011;33036;51.320;17.234;2022-09-19T12:12:21;42.70;;;21.85;;
47299;SDS011;33036;51.320;17.234;2022-09-19T12:16:28;64.00;;;26.05;;
47299;SDS011;33036;51.320;17.234;2022-09-19T12:20:41;28.20;;;13.07;;
47299;SDS011;33036;51.320;17.234;2022-09-19T12:25:15;9.93;;;5.97;;
47299;SDS011;33036;51.320;17.234;2022-09-19T12:29:36;7.97;;;3.38;;
47299;SDS011;33036;51.320;17.234;2022-09-19T12:33:49;7.43;;;4.95;;
47299;SDS011;33036;51.320;17.234;2022-09-19T12:37:59;5.10;;;4.18;;
47299;SDS011;33036;51.320;17.234;2022-09-19T12:42:14;9.13;;;5.70;;
47299;SDS011;33036;51.320;17.234;2022-09-19T12:50:40;6.55;;;4.20;;
47299;SDS011;33036;51.320;17.234;2022-09-19T12:59:17;43.35;;;24.92;;
47299;SDS011;33036;51.320;17.234;2022-09-19T13:03:23;12.00;;;6.68;;
47299;SDS011;33036;51.320;17.234;2022-09-19T13:11:56;8.68;;;6.05;;
47299;SDS011;33036;51.320;17.234;2022-09-19T13:16:01;7.47;;;5.38;;
47299;SDS011;33036;51.320;17.234;2022-09-19T13:20:15;5.30;;;3.83;;
47299;SDS011;33036;51.320;17.234;2022-09-19T13:28:48;5.78;;;2.90;;
47299;SDS011;33036;51.320;17.234;2022-09-19T13:32:54;4.55;;;3.05;;
47299;SDS011;33036;51.320;17.234;2022-09-19T13:36:55;4.50;;;2.22;;
47299;SDS011;33036;51.320;17.234;2022-09-19T13:41:00;3.65;;;2.42;;
47299;SDS011;33036;51.320;17.234;2022-09-19T13:58:27;4.80;;;3.08;;
47299;SDS011;33036;51.320;17.234;2022-09-19T14:02:30;3.53;;;2.90;;
47299;SDS011;33036;51.320;17.234;2022-09-19T14:06:35;3.78;;;2.63;;
47299;SDS011;33036;51.320;17.234;2022-09-19T14:10:38;4.22;;;2.60;;
47299;SDS011;33036;51.320;17.234;2022-09-19T14:14:52;4.30;;;3.15;;
47299;SDS011;33036;51.320;17.234;2022-09-19T14:18:53;4.32;;;2.70;;
47299;SDS011;33036;51.320;17.234;2022-09-19T14:22:55;6.45;;;3.00;;
47299;SDS011;33036;51.320;17.234;2022-09-19T14:44:47;7.10;;;3.47;;
47299;SDS011;33036;51.320;17.234;2022-09-19T14:49:04;5.28;;;3.40;;
47299;SDS011;33036;51.320;17.234;2022-09-19T14:53:11;5.43;;;3.28;;
47299;SDS011;33036;51.320;17.234;2022-09-19T14:57:17;6.15;;;3.83;;
47299;SDS011;33036;51.320;17.234;2022-09-19T15:01:26;7.35;;;4.35;;
47299;SDS011;33036;51.320;17.234;2022-09-19T15:05:29;8.40;;;3.85;;
47299;SDS011;33036;51.320;17.234;2022-09-19T15:09:33;7.18;;;4.07;;
47299;SDS011;33036;51.320;17.234;2022-09-19T15:13:44;6.00;;;4.05;;
47299;SDS011;33036;51.320;17.234;2022-09-19T15:17:46;15.05;;;3.58;;
47299;SDS011;33036;51.320;17.234;2022-09-19T15:21:47;4.43;;;3.70;;
47299;SDS011;33036;51.320;17.234;2022-09-19T15:25:53;4.20;;;3.03;;
47299;SDS011;33036;51.320;17.234;2022-09-19T15:30:06;4.73;;;3.33;;
47299;SDS011;33036;51.320;17.234;2022-09-19T15:34:18;4.68;;;3.42;;
47299;SDS011;33036;51.320;17.234;2022-09-19T15:42:24;5.55;;;2.95;;
47299;SDS011;33036;51.320;17.234;2022-09-19T15:50:30;4.80;;;3.45;;
47299;SDS011;33036;51.320;17.234;2022-09-19T15:54:33;5.60;;;3.25;;
47299;SDS011;33036;51.320;17.234;2022-09-19T15:58:39;3.95;;;3.08;;
47299;SDS011;33036;51.320;17.234;2022-09-19T16:03:02;5.95;;;3.20;;
47299;SDS011;33036;51.320;17.234;2022-09-19T16:07:11;8.20;;;3.80;;
47299;SDS011;33036;51.320;17.234;2022-09-19T16:11:46;7.70;;;3.78;;
47299;SDS011;33036;51.320;17.234;2022-09-19T16:15:49;5.05;;;3.67;;
47299;SDS011;33036;51.320;17.234;2022-09-19T16:19:51;10.70;;;3.92;;
47299;SDS011;33036;51.320;17.234;2022-09-19T16:23:54;8.30;;;4.13;;
47299;SDS011;33036;51.320;17.234;2022-09-19T16:27:55;6.85;;;3.83;;
47299;SDS011;33036;51.320;17.234;2022-09-19T16:31:56;7.35;;;3.72;;
47299;SDS011;33036;51.320;17.234;2022-09-19T16:35:58;6.13;;;3.63;;
47299;SDS011;33036;51.320;17.234;2022-09-19T16:40:01;7.20;;;4.07;;
47299;SDS011;33036;51.320;17.234;2022-09-19T16:48:17;9.43;;;5.40;;
47299;SDS011;33036;51.320;17.234;2022-09-19T16:52:22;11.85;;;4.80;;
47299;SDS011;33036;51.320;17.234;2022-09-19T16:56:24;7.93;;;4.10;;
47299;SDS011;33036;51.320;17.234;2022-09-19T17:00:26;8.07;;;4.70;;
47299;SDS011;33036;51.320;17.234;2022-09-19T17:04:28;10.52;;;5.25;;
47299;SDS011;33036;51.320;17.234;2022-09-19T17:08:29;10.50;;;4.93;;
47299;SDS011;33036;51.320;17.234;2022-09-19T17:12:30;8.88;;;4.40;;
47299;SDS011;33036;51.320;17.234;2022-09-19T17:16:31;6.53;;;4.20;;
47299;SDS011;33036;51.320;17.234;2022-09-19T17:20:32;8.77;;;4.80;;
47299;SDS011;33036;51.320;17.234;2022-09-19T17:24:33;12.60;;;6.57;;
47299;SDS011;33036;51.320;17.234;2022-09-19T17:28:35;14.13;;;6.82;;
47299;SDS011;33036;51.320;17.234;2022-09-19T17:32:38;14.73;;;7.45;;
47299;SDS011;33036;51.320;17.234;2022-09-19T17:36:40;16.80;;;6.28;;
47299;SDS011;33036;51.320;17.234;2022-09-19T17:40:42;13.30;;;6.80;;
47299;SDS011;33036;51.320;17.234;2022-09-19T17:44:44;9.95;;;6.80;;
47299;SDS011;33036;51.320;17.234;2022-09-19T17:48:48;17.50;;;9.27;;
47299;SDS011;33036;51.320;17.234;2022-09-19T17:52:50;16.45;;;8.38;;
47299;SDS011;33036;51.320;17.234;2022-09-19T17:56:52;12.02;;;6.43;;
47299;SDS011;33036;51.320;17.234;2022-09-19T18:00:56;13.82;;;5.65;;
47299;SDS011;33036;51.320;17.234;2022-09-19T18:05:17;11.05;;;5.70;;
47299;SDS011;33036;51.320;17.234;2022-09-19T18:09:23;14.60;;;8.63;;
47299;SDS011;33036;51.320;17.234;2022-09-19T18:13:24;10.00;;;6.10;;
47299;SDS011;33036;51.320;17.234;2022-09-19T18:17:25;9.05;;;5.00;;
47299;SDS011;33036;51.320;17.234;2022-09-19T18:21:27;11.27;;;5.55;;
47299;SDS011;33036;51.320;17.234;2022-09-19T18:25:29;9.27;;;5.20;;
47299;SDS011;33036;51.320;17.234;2022-09-19T18:29:32;8.68;;;5.10;;
47299;SDS011;33036;51.320;17.234;2022-09-19T18:33:35;8.25;;;4.70;;
47299;SDS011;33036;51.320;17.234;2022-09-19T18:37:37;6.70;;;4.75;;
47299;SDS011;33036;51.320;17.234;2022-09-19T18:41:39;6.78;;;3.88;;
47299;SDS011;33036;51.320;17.234;2022-09-19T18:45:40;6.60;;;4.15;;
47299;SDS011;33036;51.320;17.234;2022-09-19T18:49:43;6.35;;;3.50;;
47299;SDS011;33036;51.320;17.234;2022-09-19T18:53:44;7.80;;;3.10;;
47299;SDS011;33036;51.320;17.234;2022-09-19T18:57:49;4.40;;;2.35;;
47299;SDS011;33036;51.320;17.234;2022-09-19T19:01:53;5.20;;;2.80;;
47299;SDS011;33036;51.320;17.234;2022-09-19T19:06:00;6.10;;;2.95;;
47299;SDS011;33036;51.320;17.234;2022-09-19T19:10:03;5.88;;;2.88;;
47299;SDS011;33036;51.320;17.234;2022-09-19T19:14:07;5.03;;;2.80;;
47299;SDS011;33036;51.320;17.234;2022-09-19T19:18:11;4.25;;;2.70;;
47299;SDS011;33036;51.320;17.234;2022-09-19T19:22:17;6.82;;;2.42;;
47299;SDS011;33036;51.320;17.234;2022-09-19T19:26:23;3.50;;;1.92;;
47299;SDS011;33036;51.320;17.234;2022-09-19T19:30:30;4.18;;;2.20;;
47299;SDS011;33036;51.320;17.234;2022-09-19T19:34:35;5.10;;;1.90;;
47299;SDS011;33036;51.320;17.234;2022-09-19T19:38:42;8.98;;;2.35;;
47299;SDS011;33036;51.320;17.234;2022-09-19T19:42:46;11.32;;;2.38;;
47299;SDS011;33036;51.320;17.234;2022-09-19T19:46:52;8.63;;;2.80;;
47299;SDS011;33036;51.320;17.234;2022-09-19T19:50:57;7.95;;;3.03;;
47299;SDS011;33036;51.320;17.234;2022-09-19T19:55:02;9.05;;;3.88;;
47299;SDS011;33036;51.320;17.234;2022-09-19T19:59:04;7.93;;;3.63;;
47299;SDS011;33036;51.320;17.234;2022-09-19T20:03:07;12.27;;;3.75;;
47299;SDS011;33036;51.320;17.234;2022-09-19T20:07:09;5.60;;;3.67;;
47299;SDS011;33036;51.320;17.234;2022-09-19T20:11:10;5.57;;;3.50;;
47299;SDS011;33036;51.320;17.234;2022-09-19T20:15:11;7.05;;;4.10;;
47299;SDS011;33036;51.320;17.234;2022-09-19T20:19:13;10.38;;;3.85;;
47299;SDS011;33036;51.320;17.234;2022-09-19T20:23:17;8.30;;;3.58;;
47299;SDS011;33036;51.320;17.234;2022-09-19T20:27:20;8.10;;;4.53;;
47299;SDS011;33036;51.320;17.234;2022-09-19T20:31:21;10.57;;;3.97;;
47299;SDS011;33036;51.320;17.234;2022-09-19T20:35:26;12.27;;;3.75;;
47299;SDS011;33036;51.320;17.234;2022-09-19T20:39:27;13.38;;;4.00;;
47299;SDS011;33036;51.320;17.234;2022-09-19T20:43:28;7.80;;;3.47;;
47299;SDS011;33036;51.320;17.234;2022-09-19T20:47:29;7.70;;;3.38;;
47299;SDS011;33036;51.320;17.234;2022-09-19T20:51:32;7.22;;;3.20;;
47299;SDS011;33036;51.320;17.234;2022-09-19T20:55:34;8.73;;;2.80;;
47299;SDS011;33036;51.320;17.234;2022-09-19T20:59:36;7.75;;;3.08;;
47299;SDS011;33036;51.320;17.234;2022-09-19T21:03:38;12.75;;;3.28;;
47299;SDS011;33036;51.320;17.234;2022-09-19T21:07:39;5.78;;;3.22;;
47299;SDS011;33036;51.320;17.234;2022-09-19T21:11:40;7.63;;;3.60;;
47299;SDS011;33036;51.320;17.234;2022-09-19T21:15:41;7.40;;;3.70;;
47299;SDS011;33036;51.320;17.234;2022-09-19T21:19:43;7.35;;;3.60;;
47299;SDS011;33036;51.320;17.234;2022-09-19T21:23:44;7.68;;;3.25;;
47299;SDS011;33036;51.320;17.234;2022-09-19T21:27:47;10.63;;;3.63;;
47299;SDS011;33036;51.320;17.234;2022-09-19T21:31:48;7.55;;;3.75;;
47299;SDS011;33036;51.320;17.234;2022-09-19T21:35:49;7.85;;;3.85;;
47299;SDS011;33036;51.320;17.234;2022-09-19T21:39:50;5.38;;;3.42;;
47299;SDS011;33036;51.320;17.234;2022-09-19T21:43:52;7.07;;;3.55;;
47299;SDS011;33036;51.320;17.234;2022-09-19T21:47:54;16.90;;;4.22;;
47299;SDS011;33036;51.320;17.234;2022-09-19T21:51:55;8.95;;;3.78;;
47299;SDS011;33036;51.320;17.234;2022-09-19T21:55:57;9.27;;;4.10;;
47299;SDS011;33036;51.320;17.234;2022-09-19T21:59:58;6.97;;;4.15;;
47299;SDS011;33036;51.320;17.234;2022-09-19T22:04:00;6.80;;;4.32;;
47299;SDS011;33036;51.320;17.234;2022-09-19T22:08:01;12.00;;;4.43;;
47299;SDS011;33036;51.320;17.234;2022-09-19T22:12:02;7.75;;;4.30;;
47299;SDS011;33036;51.320;17.234;2022-09-19T22:16:04;10.77;;;4.95;;
47299;SDS011;33036;51.320;17.234;2022-09-19T22:20:07;9.38;;;4.50;;
47299;SDS011;33036;51.320;17.234;2022-09-19T22:24:08;8.15;;;4.55;;
47299;SDS011;33036;51.320;17.234;2022-09-19T22:28:10;8.13;;;4.78;;
47299;SDS011;33036;51.320;17.234;2022-09-19T22:32:12;12.63;;;4.65;;
47299;SDS011;33036;51.320;17.234;2022-09-19T22:36:17;9.07;;;3.97;;
47299;SDS011;33036;51.320;17.234;2022-09-19T22:40:23;5.82;;;4.10;;
47299;SDS011;33036;51.320;17.234;2022-09-19T22:44:24;6.45;;;4.55;;
47299;SDS011;33036;51.320;17.234;2022-09-19T22:48:25;7.20;;;4.32;;
47299;SDS011;33036;51.320;17.234;2022-09-19T22:52:26;9.35;;;4.45;;
47299;SDS011;33036;51.320;17.234;2022-09-19T22:56:27;13.73;;;4.88;;
47299;SDS011;33036;51.320;17.234;2022-09-19T23:00:31;14.60;;;4.28;;
47299;SDS011;33036;51.320;17.234;2022-09-19T23:04:34;8.75;;;4.25;;
47299;SDS011;33036;51.320;17.234;2022-09-19T23:08:35;6.88;;;3.90;;
47299;SDS011;33036;51.320;17.234;2022-09-19T23:12:35;8.18;;;4.20;;
47299;SDS011;33036;51.320;17.234;2022-09-19T23:16:40;11.57;;;3.70;;
47299;SDS011;33036;51.320;17.234;2022-09-19T23:20:41;7.63;;;5.35;;
47299;SDS011;33036;51.320;17.234;2022-09-19T23:24:42;8.70;;;3.88;;
47299;SDS011;33036;51.320;17.234;2022-09-19T23:28:43;7.93;;;4.25;;
47299;SDS011;33036;51.320;17.234;2022-09-19T23:32:44;8.52;;;4.03;;
47299;SDS011;33036;51.320;17.234;2022-09-19T23:36:46;11.00;;;4.43;;
47299;SDS011;33036;51.320;17.234;2022-09-19T23:40:47;7.68;;;4.10;;
47299;SDS011;33036;51.320;17.234;2022-09-19T23:44:48;9.40;;;4.15;;
47299;SDS011;33036;51.320;17.234;2022-09-19T23:48:49;8.10;;;4.05;;
47299;SDS011;33036;51.320;17.234;2022-09-19T23:52:50;8.32;;;3.72;;
47299;SDS011;33036;51.320;17.234;2022-09-19T23:56:51;5.07;;;3.47;;
